createdAt,value
2022-11-09T00:01:03.284Z,12.50
2022-11-09T00:03:29.987Z,12.50
2022-11-09T00:05:57.620Z,12.60
2022-11-09T00:08:24.279Z,12.10
2022-11-09T00:10:50.814Z,12.50
2022-11-09T00:13:17.990Z,12.50
2022-11-09T00:15:44.782Z,12.30
2022-11-09T00:18:11.321Z,12.40
2022-11-09T00:20:37.845Z,12.40
2022-11-09T00:23:04.392Z,12.40
2022-11-09T00:25:31.016Z,12.40
2022-11-09T00:27:57.584Z,12.40
2022-11-09T00:30:24.173Z,12.40
2022-11-09T00:32:50.720Z,12.30
2022-11-09T00:35:17.352Z,12.40
2022-11-09T00:37:43.909Z,12.40
2022-11-09T00:40:11.225Z,12.40
2022-11-09T00:42:38.036Z,12.40
2022-11-09T00:45:04.946Z,12.40
2022-11-09T00:47:31.499Z,12.40
2022-11-09T00:49:58.090Z,12.40
2022-11-09T00:52:24.651Z,12.50
2022-11-09T00:54:51.231Z,12.40
2022-11-09T00:57:17.775Z,12.40
2022-11-09T00:59:44.323Z,12.40
2022-11-09T01:02:10.882Z,12.50
2022-11-09T01:04:37.593Z,12.50
2022-11-09T01:07:04.308Z,12.50
2022-11-09T01:09:31.053Z,12.40
2022-11-09T01:11:57.580Z,12.40
2022-11-09T01:14:24.233Z,12.40
2022-11-09T01:16:52.401Z,12.40
2022-11-09T01:19:18.960Z,12.40
2022-11-09T01:21:45.558Z,12.30
2022-11-09T01:24:12.118Z,12.40
2022-11-09T01:26:38.695Z,12.40
2022-11-09T01:29:05.326Z,12.40
2022-11-09T01:31:31.868Z,12.30
2022-11-09T01:33:58.434Z,12.30
2022-11-09T01:36:25.366Z,12.30
2022-11-09T01:38:52.401Z,12.20
2022-11-09T01:41:26.271Z,12.10
2022-11-09T01:44:11.987Z,12.20
2022-11-09T01:46:55.034Z,12.10
2022-11-09T01:49:41.076Z,11.90
2022-11-09T01:52:27.986Z,12.10
2022-11-09T01:55:02.067Z,12.10
2022-11-09T01:57:33.185Z,12.10
2022-11-09T02:00:05.309Z,12.10
2022-11-09T02:02:32.203Z,12.10
2022-11-09T02:05:02.972Z,12.10
2022-11-09T02:07:29.722Z,12.10
2022-11-09T02:10:03.933Z,12.00
2022-11-09T02:12:34.379Z,12.00
2022-11-09T02:15:04.613Z,12.00
2022-11-09T02:17:31.369Z,12.00
2022-11-09T02:19:58.673Z,12.00
2022-11-09T02:22:25.371Z,11.90
2022-11-09T02:24:56.112Z,11.90
2022-11-09T02:27:23.769Z,11.80
2022-11-09T02:29:50.658Z,11.80
2022-11-09T02:32:22.446Z,11.80
2022-11-09T02:34:49.113Z,11.80
2022-11-09T02:37:35.770Z,11.80
2022-11-09T02:40:07.350Z,11.70
2022-11-09T02:42:34.164Z,11.70
2022-11-09T02:45:00.900Z,11.70
2022-11-09T02:47:27.496Z,11.70
2022-11-09T02:49:54.081Z,11.70
2022-11-09T02:52:20.674Z,11.70
2022-11-09T02:54:47.271Z,11.70
2022-11-09T02:57:13.822Z,11.60
2022-11-09T02:59:40.367Z,11.60
2022-11-09T03:02:07.318Z,11.60
2022-11-09T03:04:33.844Z,11.60
2022-11-09T03:07:00.476Z,11.60
2022-11-09T03:09:27.099Z,11.50
2022-11-09T03:11:53.740Z,11.50
2022-11-09T03:14:20.298Z,11.50
2022-11-09T03:16:50.459Z,11.50
2022-11-09T03:19:17.462Z,11.60
2022-11-09T03:21:44.119Z,11.50
2022-11-09T03:24:10.672Z,11.50
2022-11-09T03:26:37.256Z,11.60
2022-11-09T03:29:03.899Z,11.60
2022-11-09T03:31:30.445Z,11.60
2022-11-09T03:33:57.026Z,11.70
2022-11-09T03:36:23.585Z,11.80
2022-11-09T03:38:50.114Z,11.70
2022-11-09T03:41:16.695Z,11.70
2022-11-09T03:43:43.264Z,11.80
2022-11-09T03:46:09.804Z,11.80
2022-11-09T03:48:36.362Z,11.90
2022-11-09T03:51:02.926Z,11.90
2022-11-09T03:53:29.961Z,11.90
2022-11-09T03:55:57.789Z,11.90
2022-11-09T03:58:24.590Z,11.90
2022-11-09T04:00:51.177Z,12.00
2022-11-09T04:03:18.019Z,12.10
2022-11-09T04:05:44.778Z,12.10
2022-11-09T04:08:11.335Z,12.10
2022-11-09T04:10:37.870Z,12.10
2022-11-09T04:13:04.427Z,12.10
2022-11-09T04:15:31.020Z,12.10
2022-11-09T04:18:02.104Z,12.00
2022-11-09T04:20:30.240Z,12.00
2022-11-09T04:23:01.767Z,12.10
2022-11-09T04:25:31.472Z,12.00
2022-11-09T04:27:59.165Z,12.00
2022-11-09T04:30:30.351Z,12.00
2022-11-09T04:32:58.129Z,11.90
2022-11-09T04:35:26.247Z,11.90
2022-11-09T04:37:57.280Z,11.90
2022-11-09T04:40:25.200Z,11.90
2022-11-09T04:42:52.321Z,11.90
2022-11-09T04:45:19.684Z,12.00
2022-11-09T04:47:46.282Z,12.00
2022-11-09T04:50:13.242Z,12.10
2022-11-09T04:52:40.161Z,12.10
2022-11-09T04:55:07.582Z,12.00
2022-11-09T04:57:34.407Z,12.10
2022-11-09T05:00:00.941Z,12.10
2022-11-09T05:02:27.487Z,12.10
2022-11-09T05:04:54.018Z,12.10
2022-11-09T05:07:20.547Z,12.10
2022-11-09T05:09:47.089Z,12.10
2022-11-09T05:12:13.636Z,12.00
2022-11-09T05:14:40.222Z,12.00
2022-11-09T05:17:08.694Z,12.00
2022-11-09T05:19:35.522Z,12.00
2022-11-09T05:22:22.031Z,11.90
2022-11-09T05:24:48.643Z,12.00
2022-11-09T05:27:15.191Z,12.00
2022-11-09T05:29:41.770Z,12.00
2022-11-09T05:32:08.424Z,12.20
2022-11-09T05:34:35.089Z,12.10
2022-11-09T05:37:03.650Z,12.00
2022-11-09T05:39:30.489Z,12.10
2022-11-09T05:41:57.029Z,12.00
2022-11-09T05:44:23.626Z,12.30
2022-11-09T05:46:50.214Z,12.00
2022-11-09T05:49:16.842Z,12.00
2022-11-09T05:51:43.390Z,12.00
2022-11-09T05:54:10.034Z,12.10
2022-11-09T05:56:36.594Z,12.10
2022-11-09T05:59:03.445Z,12.10
2022-11-09T06:01:29.987Z,12.10
2022-11-09T06:03:56.562Z,12.10
2022-11-09T06:06:23.184Z,12.10
2022-11-09T06:08:50.734Z,12.10
2022-11-09T06:11:23.675Z,12.10
2022-11-09T06:13:52.068Z,12.20
2022-11-09T06:16:25.976Z,12.10
2022-11-09T06:18:52.604Z,12.20
2022-11-09T06:21:19.448Z,12.20
2022-11-09T06:23:46.039Z,12.20
2022-11-09T06:26:13.292Z,12.30
2022-11-09T06:28:41.182Z,12.30
2022-11-09T06:31:10.188Z,12.30
2022-11-09T06:33:37.155Z,13.90
2022-11-09T06:36:04.441Z,12.30
2022-11-09T06:38:31.536Z,12.40
2022-11-09T06:40:59.667Z,12.40
2022-11-09T06:43:27.035Z,12.40
2022-11-09T06:45:54.284Z,12.40
2022-11-09T06:48:21.202Z,12.30
2022-11-09T06:50:47.800Z,12.30
2022-11-09T06:53:16.461Z,12.40
2022-11-09T06:55:48.843Z,12.30
2022-11-09T06:58:17.501Z,12.40
2022-11-09T07:00:44.762Z,12.40
2022-11-09T07:03:15.095Z,12.20
2022-11-09T07:05:41.919Z,12.40
2022-11-09T07:08:09.134Z,12.30
2022-11-09T07:10:36.086Z,12.30
2022-11-09T07:13:05.409Z,12.20
2022-11-09T07:15:33.295Z,12.30
2022-11-09T07:18:01.403Z,12.20
2022-11-09T07:20:28.814Z,12.40
2022-11-09T07:22:55.422Z,12.20
2022-11-09T07:25:22.650Z,12.10
2022-11-09T07:27:49.252Z,12.10
2022-11-09T07:30:16.005Z,12.10
2022-11-09T07:35:30.167Z,12.00
2022-11-09T07:38:01.368Z,12.00
2022-11-09T07:40:27.945Z,12.00
2022-11-09T07:42:58.550Z,12.00
2022-11-09T07:45:25.950Z,12.10
2022-11-09T07:48:00.481Z,11.90
2022-11-09T07:50:28.912Z,11.90
2022-11-09T07:52:56.459Z,11.80
2022-11-09T07:55:23.735Z,11.60
2022-11-09T07:57:55.812Z,11.50
2022-11-09T08:00:23.892Z,11.60
2022-11-09T08:02:50.745Z,11.70
2022-11-09T08:05:17.438Z,11.80
2022-11-09T08:07:44.061Z,11.80
2022-11-09T08:10:10.867Z,11.90
2022-11-09T08:12:37.635Z,11.90
2022-11-09T08:15:05.699Z,11.90
2022-11-09T08:17:32.641Z,11.90
2022-11-09T08:19:59.182Z,11.70
2022-11-09T08:22:25.737Z,12.00
2022-11-09T08:24:52.329Z,11.90
2022-11-09T08:27:18.935Z,12.00
2022-11-09T08:29:45.526Z,12.00
2022-11-09T08:32:12.349Z,11.90
2022-11-09T08:34:38.907Z,12.00
2022-11-09T08:37:05.475Z,12.00
2022-11-09T08:39:32.132Z,11.90
2022-11-09T08:41:58.686Z,12.00
2022-11-09T08:44:25.275Z,12.00
2022-11-09T08:46:51.814Z,12.00
2022-11-09T08:49:18.360Z,12.00
2022-11-09T08:51:44.998Z,12.00
2022-11-09T08:54:13.450Z,11.90
2022-11-09T08:56:40.157Z,11.90
2022-11-09T08:59:06.709Z,11.70
2022-11-09T09:01:33.575Z,11.90
2022-11-09T09:04:00.145Z,11.90
2022-11-09T09:06:30.936Z,12.00
2022-11-09T09:08:57.953Z,12.00
2022-11-09T09:11:24.517Z,12.10
2022-11-09T09:13:51.080Z,12.10
2022-11-09T09:16:17.696Z,12.10
2022-11-09T09:18:44.586Z,12.20
2022-11-09T09:21:11.197Z,12.20
2022-11-09T09:23:37.738Z,12.20
2022-11-09T09:26:04.440Z,12.30
2022-11-09T09:28:31.169Z,12.40
2022-11-09T09:31:01.542Z,12.40
2022-11-09T09:33:28.513Z,12.40
2022-11-09T09:35:59.030Z,12.40
2022-11-09T09:38:26.931Z,12.40
2022-11-09T09:40:59.424Z,12.50
2022-11-09T09:43:43.807Z,12.60
2022-11-09T09:46:43.397Z,12.70
2022-11-09T09:49:17.112Z,12.70
2022-11-09T09:52:14.925Z,12.80
2022-11-09T09:54:48.878Z,12.80
2022-11-09T09:57:20.714Z,12.80
2022-11-09T09:59:50.957Z,12.70
2022-11-09T10:02:34.190Z,12.70
2022-11-09T10:05:06.795Z,12.60
2022-11-09T10:07:51.804Z,12.50
2022-11-09T10:10:37.393Z,12.60
2022-11-09T10:13:34.545Z,12.60
2022-11-09T10:16:16.564Z,12.50
2022-11-09T10:19:05.538Z,12.50
2022-11-09T10:21:43.452Z,12.60
2022-11-09T10:24:58.649Z,12.60
2022-11-09T10:27:36.441Z,12.70
2022-11-09T10:30:13.099Z,12.70
2022-11-09T10:32:41.191Z,12.70
2022-11-09T10:35:28.062Z,12.70
2022-11-09T10:37:55.011Z,12.70
2022-11-09T10:40:27.149Z,12.80
2022-11-09T10:42:57.285Z,12.80
2022-11-09T10:45:32.865Z,12.80
2022-11-09T10:48:00.097Z,13.00
2022-11-09T10:50:54.205Z,13.10
2022-11-09T10:53:22.604Z,13.20
2022-11-09T10:55:54.840Z,13.40
2022-11-09T10:58:30.106Z,13.40
2022-11-09T11:01:00.284Z,13.50
2022-11-09T11:03:27.547Z,13.50
2022-11-09T11:06:03.589Z,13.50
2022-11-09T11:08:36.900Z,13.60
2022-11-09T11:11:38.061Z,13.60
2022-11-09T11:14:34.982Z,13.60
2022-11-09T11:17:01.769Z,13.60
2022-11-09T11:19:38.192Z,13.70
2022-11-09T11:22:14.319Z,13.70
2022-11-09T11:25:17.314Z,13.80
2022-11-09T11:27:52.642Z,13.80
2022-11-09T11:30:28.625Z,13.90
2022-11-09T11:32:56.196Z,14.00
2022-11-09T11:36:02.439Z,13.90
2022-11-09T11:39:25.333Z,13.90
2022-11-09T11:42:35.892Z,14.00
2022-11-09T11:45:40.254Z,14.20
2022-11-09T11:48:31.772Z,14.40
2022-11-09T11:51:17.912Z,14.50
2022-11-09T11:54:40.341Z,14.50
2022-11-09T11:57:34.219Z,14.60
2022-11-09T12:00:10.224Z,14.70
2022-11-09T12:03:14.922Z,14.80
2022-11-09T12:06:10.876Z,14.70
2022-11-09T12:09:03.218Z,14.80
2022-11-09T12:11:48.133Z,14.80
2022-11-09T12:14:30.100Z,14.90
2022-11-09T12:17:21.098Z,14.90
2022-11-09T12:20:22.663Z,14.90
2022-11-09T12:23:11.010Z,15.00
2022-11-09T12:26:00.687Z,15.00
2022-11-09T12:29:02.111Z,15.00
2022-11-09T12:31:58.377Z,15.00
2022-11-09T12:34:42.224Z,15.00
2022-11-09T12:37:19.573Z,15.00
2022-11-09T12:39:47.818Z,15.10
2022-11-09T12:42:28.803Z,15.00
2022-11-09T12:45:34.149Z,15.10
2022-11-09T12:48:11.605Z,15.00
2022-11-09T12:50:39.171Z,15.00
2022-11-09T12:53:06.265Z,14.90
2022-11-09T12:55:52.015Z,14.90
2022-11-09T12:58:30.342Z,15.00
2022-11-09T13:01:00.110Z,15.00
2022-11-09T13:03:34.681Z,15.00
2022-11-09T13:06:16.498Z,15.00
2022-11-09T13:08:56.540Z,15.00
2022-11-09T13:11:39.911Z,15.00
2022-11-09T13:14:38.845Z,14.90
2022-11-09T13:17:26.293Z,14.90
2022-11-09T13:19:55.167Z,14.80
2022-11-09T13:22:22.895Z,14.80
2022-11-09T13:24:52.895Z,14.70
2022-11-09T13:27:39.674Z,14.70
2022-11-09T13:30:24.774Z,14.70
2022-11-09T13:33:06.347Z,14.70
2022-11-09T13:35:41.677Z,14.60
2022-11-09T13:38:31.280Z,14.70
2022-11-09T13:40:59.321Z,14.70
2022-11-09T13:43:28.792Z,14.70
2022-11-09T13:46:03.832Z,14.60
2022-11-09T13:48:49.314Z,14.60
2022-11-09T13:51:19.368Z,14.50
2022-11-09T13:54:00.613Z,14.40
2022-11-09T13:56:30.003Z,14.40
2022-11-09T13:59:07.294Z,14.30
2022-11-09T14:01:45.063Z,14.40
2022-11-09T14:04:28.824Z,14.40
2022-11-09T14:07:23.362Z,14.40
2022-11-09T14:10:32.899Z,14.40
2022-11-09T14:13:22.954Z,14.30
2022-11-09T14:16:06.636Z,14.30
2022-11-09T14:18:57.945Z,14.20
2022-11-09T14:21:39.029Z,14.20
2022-11-09T14:24:17.173Z,14.30
2022-11-09T14:27:01.918Z,14.30
2022-11-09T14:29:32.892Z,14.10
2022-11-09T14:32:02.325Z,14.10
2022-11-09T14:34:29.682Z,13.90
2022-11-09T14:36:57.656Z,14.00
2022-11-09T14:39:30.887Z,14.00
2022-11-09T14:41:57.707Z,14.00
2022-11-09T14:44:35.699Z,14.10
2022-11-09T14:47:03.360Z,14.10
2022-11-09T14:49:30.063Z,14.00
2022-11-09T14:51:56.626Z,14.00
2022-11-09T14:54:26.870Z,14.00
2022-11-09T14:56:54.597Z,14.00
2022-11-09T14:59:34.255Z,13.90
2022-11-09T15:02:06.841Z,13.90
2022-11-09T15:04:57.166Z,13.90
2022-11-09T15:07:27.223Z,13.80
2022-11-09T15:09:58.264Z,13.80
2022-11-09T15:12:25.448Z,13.80
2022-11-09T15:15:01.499Z,13.70
2022-11-09T15:17:35.753Z,13.50
2022-11-09T15:20:24.279Z,13.50
2022-11-09T15:22:58.545Z,13.50
2022-11-09T15:25:35.463Z,13.50
2022-11-09T15:28:14.078Z,13.60
2022-11-09T15:30:49.599Z,13.30
2022-11-09T15:33:41.109Z,13.40
2022-11-09T15:36:28.591Z,13.20
2022-11-09T15:38:59.819Z,13.30
2022-11-09T15:41:27.663Z,13.30
2022-11-09T15:43:54.343Z,13.20
2022-11-09T15:46:27.072Z,13.50
2022-11-09T15:48:53.761Z,13.30
2022-11-09T15:51:20.466Z,13.20
2022-11-09T15:53:47.167Z,13.30
2022-11-09T15:56:19.867Z,13.20
2022-11-09T15:58:48.618Z,13.20
2022-11-09T16:01:16.182Z,13.20
2022-11-09T16:03:42.792Z,13.20
2022-11-09T16:06:17.705Z,13.20
2022-11-09T16:08:48.239Z,13.20
2022-11-09T16:11:14.847Z,13.10
2022-11-09T16:13:41.631Z,13.10
2022-11-09T16:16:10.741Z,13.10
2022-11-09T16:18:37.543Z,13.10
2022-11-09T16:21:12.585Z,13.10
2022-11-09T16:23:39.453Z,13.00
2022-11-09T16:26:10.352Z,13.00
2022-11-09T16:28:37.714Z,13.00
2022-11-09T16:31:04.384Z,12.90
2022-11-09T16:33:31.061Z,12.80
2022-11-09T16:36:01.266Z,12.80
2022-11-09T16:38:30.293Z,12.80
2022-11-09T16:40:58.509Z,12.80
2022-11-09T16:43:25.213Z,12.80
2022-11-09T16:45:52.055Z,12.70
2022-11-09T16:48:18.951Z,12.70
2022-11-09T16:50:46.927Z,12.60
2022-11-09T16:53:13.505Z,12.60
2022-11-09T16:55:40.116Z,12.60
2022-11-09T16:58:06.739Z,12.60
2022-11-09T17:00:49.132Z,12.60
2022-11-09T17:03:19.948Z,12.50
2022-11-09T17:05:46.548Z,12.40
2022-11-09T17:08:13.637Z,12.50
2022-11-09T17:10:42.986Z,12.50
2022-11-09T17:13:10.124Z,12.50
2022-11-09T17:15:41.816Z,12.50
2022-11-09T17:18:09.879Z,12.50
2022-11-09T17:20:42.283Z,12.00
2022-11-09T17:23:09.550Z,12.50
2022-11-09T17:25:36.121Z,12.50
2022-11-09T17:28:03.339Z,12.40
2022-11-09T17:30:30.014Z,12.30
2022-11-09T17:32:56.554Z,12.30
2022-11-09T17:35:24.230Z,12.20
2022-11-09T17:37:50.810Z,12.20
2022-11-09T17:40:19.736Z,12.20
2022-11-09T17:42:46.382Z,12.00
2022-11-09T17:45:13.005Z,12.00
2022-11-09T17:47:39.568Z,11.90
2022-11-09T17:50:06.830Z,11.90
2022-11-09T17:52:33.391Z,11.90
2022-11-09T17:54:59.967Z,11.90
2022-11-09T17:57:26.519Z,11.80
2022-11-09T17:59:53.053Z,11.90
2022-11-09T18:02:20.023Z,11.80
2022-11-09T18:04:46.578Z,11.90
2022-11-09T18:07:13.209Z,11.90
2022-11-09T18:09:41.876Z,12.00
2022-11-09T18:12:09.630Z,12.10
2022-11-09T18:14:36.198Z,12.20
2022-11-09T18:17:02.967Z,12.20
2022-11-09T18:19:29.598Z,12.30
2022-11-09T18:21:56.164Z,12.30
2022-11-09T18:24:22.773Z,12.20
2022-11-09T18:26:49.389Z,12.20
2022-11-09T18:29:15.961Z,12.20
2022-11-09T18:31:42.539Z,12.30
2022-11-09T18:34:10.566Z,12.30
2022-11-09T18:36:37.117Z,12.30
2022-11-09T18:39:04.579Z,12.20
2022-11-09T18:41:31.130Z,12.30
2022-11-09T18:43:58.430Z,12.40
2022-11-09T18:46:30.019Z,12.40
2022-11-09T18:48:56.610Z,13.00
2022-11-09T18:51:23.313Z,12.40
2022-11-09T18:53:49.911Z,12.40
2022-11-09T18:56:21.597Z,12.50
2022-11-09T18:58:49.808Z,12.50
2022-11-09T19:01:16.550Z,12.50
2022-11-09T19:03:43.156Z,12.60
2022-11-09T19:06:17.928Z,12.60
2022-11-09T19:09:03.587Z,12.70
2022-11-09T19:11:31.127Z,12.80
2022-11-09T19:13:57.957Z,12.80
2022-11-09T19:16:25.774Z,12.90
2022-11-09T19:18:52.634Z,12.90
2022-11-09T19:21:25.109Z,12.80
2022-11-09T19:23:51.993Z,12.80
2022-11-09T19:26:18.760Z,12.70
2022-11-09T19:28:45.512Z,12.60
2022-11-09T19:31:17.383Z,12.70
2022-11-09T19:33:44.029Z,12.70
2022-11-09T19:38:58.368Z,12.70
2022-11-09T19:41:25.843Z,12.80
2022-11-09T19:43:54.448Z,12.80
2022-11-09T19:46:21.703Z,12.80
2022-11-09T19:48:48.615Z,12.70
2022-11-09T19:51:16.826Z,12.70
2022-11-09T19:53:52.219Z,12.70
2022-11-09T19:56:19.727Z,12.60
2022-11-09T19:58:51.078Z,12.60
2022-11-09T20:01:18.900Z,12.50
2022-11-09T20:03:50.093Z,12.50
2022-11-09T20:06:17.238Z,12.50
2022-11-09T20:08:43.878Z,12.50
2022-11-09T20:11:35.058Z,12.50
2022-11-09T20:14:02.427Z,12.40
2022-11-09T20:16:29.082Z,12.50
2022-11-09T20:18:55.762Z,12.40
2022-11-09T20:21:22.273Z,12.40
2022-11-09T20:23:49.089Z,12.40
2022-11-09T20:26:15.742Z,12.30
2022-11-09T20:28:42.314Z,12.30
2022-11-09T20:31:19.631Z,12.30
2022-11-09T20:33:46.820Z,12.30
2022-11-09T20:36:14.074Z,12.30
2022-11-09T20:38:40.741Z,12.30
2022-11-09T20:41:10.039Z,12.30
2022-11-09T20:43:37.627Z,12.30
2022-11-09T20:46:16.602Z,12.20
2022-11-09T20:48:59.403Z,12.20
2022-11-09T20:51:26.584Z,12.30
2022-11-09T20:53:53.221Z,12.20
2022-11-09T20:56:20.625Z,12.20
2022-11-09T20:58:47.754Z,12.00
2022-11-09T21:01:19.578Z,12.10
2022-11-09T21:03:47.379Z,12.00
2022-11-09T21:06:14.536Z,12.10
2022-11-09T21:08:44.850Z,12.10
2022-11-09T21:11:12.998Z,12.10
2022-11-09T21:13:41.588Z,12.10
2022-11-09T21:16:11.095Z,12.10
2022-11-09T21:18:37.687Z,12.00
2022-11-09T21:21:12.484Z,12.10
2022-11-09T21:23:58.588Z,12.10
2022-11-09T21:26:44.205Z,12.00
2022-11-09T21:29:32.555Z,12.10
2022-11-09T21:31:59.589Z,12.00
2022-11-09T21:34:26.478Z,12.00
2022-11-09T21:36:53.058Z,12.00
2022-11-09T21:39:19.644Z,12.00
2022-11-09T21:41:46.990Z,12.00
2022-11-09T21:44:14.280Z,12.00
2022-11-09T21:46:42.349Z,12.00
2022-11-09T21:49:10.587Z,12.00
2022-11-09T21:51:38.209Z,12.10
2022-11-09T21:54:06.149Z,12.10
2022-11-09T21:56:33.229Z,12.00
2022-11-09T21:58:59.875Z,11.90
2022-11-09T22:01:26.576Z,12.00
2022-11-09T22:03:53.469Z,12.20
2022-11-09T22:06:20.512Z,11.90
2022-11-09T22:08:47.405Z,12.00
2022-11-09T22:11:16.810Z,12.10
2022-11-09T22:14:02.172Z,12.00
2022-11-09T22:16:32.084Z,12.00
2022-11-09T22:19:19.323Z,12.00
2022-11-09T22:21:46.005Z,12.00
2022-11-09T22:24:12.570Z,12.00
2022-11-09T22:26:39.118Z,12.10
2022-11-09T22:29:05.729Z,12.00
2022-11-09T22:31:32.319Z,12.10
2022-11-09T22:33:58.898Z,12.00
2022-11-09T22:36:25.445Z,12.00
2022-11-09T22:38:52.010Z,12.00
2022-11-09T22:41:18.590Z,12.00
2022-11-09T22:43:45.337Z,12.00
2022-11-09T22:46:14.391Z,11.90
2022-11-09T22:48:42.449Z,12.00
2022-11-09T22:51:11.206Z,11.90
2022-11-09T22:53:38.023Z,11.90
2022-11-09T22:56:05.164Z,11.90
2022-11-09T22:58:31.717Z,12.00
2022-11-09T23:01:07.140Z,12.00
2022-11-09T23:03:34.891Z,11.90
2022-11-09T23:06:03.630Z,11.90
2022-11-09T23:08:35.319Z,12.00
2022-11-09T23:11:13.417Z,12.00
2022-11-09T23:13:40.365Z,12.00
2022-11-09T23:16:09.934Z,12.10
2022-11-09T23:18:55.179Z,12.20
2022-11-09T23:21:25.801Z,12.00
2022-11-09T23:23:54.074Z,12.30
2022-11-09T23:26:21.698Z,12.30
2022-11-09T23:28:48.659Z,12.30
2022-11-09T23:31:19.366Z,12.00
2022-11-09T23:33:48.261Z,12.20
2022-11-09T23:36:14.858Z,12.20
2022-11-09T23:38:41.525Z,12.20
2022-11-09T23:41:09.994Z,12.20
2022-11-09T23:43:37.467Z,12.10
2022-11-09T23:46:07.937Z,12.10
2022-11-09T23:48:34.716Z,12.10
2022-11-09T23:51:02.352Z,12.00
2022-11-09T23:53:30.276Z,12.00
2022-11-09T23:56:01.550Z,12.00
2022-11-09T23:58:28.466Z,12.00
